Time;durP1;ratioP1;P1;durP2;ratioP2;P2;SDS_P1;SDS_P2;PMS_P1;PMS_P2;Temp;Humidity;BMP_temperature;BMP_pressure;BME280_temperature;BME280_humidity;BME280_pressure;Samples;Min_cycle;Max_cycle;Signal;HPM_P1;HPM_P2
2023/02/11 00:00:14;;;;;;;0.60;0.60;;;;;;;0.15;63.91;98809.00;29373;262;63004;-63
2023/02/11 00:00:45;;;;;;;0.60;0.60;;;;;;;0.13;64.01;98808.38;29373;309;63017;-61
2023/02/11 00:01:25;;;;;;;0.60;0.60;;;;;;;0.14;64.18;98815.38;29373;230;63004;-64
2023/02/11 00:01:56;;;;;;;0.60;0.60;;;;;;;0.14;64.22;98810.84;29373;222;63008;-63
2023/02/11 00:02:30;;;;;;;0.60;0.60;;;;;;;0.15;64.03;98811.69;29372;221;64009;-63
2023/02/11 00:03:01;;;;;;;0.60;0.60;;;;;;;0.16;63.90;98808.00;29373;222;63009;-65
2023/02/11 00:03:32;;;;;;;0.65;0.65;;;;;;;0.18;63.71;98812.16;29373;221;63005;-62
2023/02/11 00:04:05;;;;;;;0.68;0.68;;;;;;;0.19;63.78;98807.66;29372;221;63009;-63
2023/02/11 00:04:36;;;;;;;0.60;0.60;;;;;;;0.19;63.55;98813.81;29373;251;63005;-61
2023/02/11 00:05:08;;;;;;;0.60;0.60;;;;;;;0.19;63.87;98808.47;29373;202;63009;-61
2023/02/11 00:05:40;;;;;;;0.60;0.60;;;;;;;0.18;63.70;98808.66;29373;212;63005;-61
2023/02/11 00:06:12;;;;;;;0.60;0.60;;;;;;;0.16;63.71;98814.19;29373;199;63005;-61
2023/02/11 00:06:43;;;;;;;0.60;0.60;;;;;;;0.15;63.72;98814.34;29373;202;63004;-60
2023/02/11 00:07:15;;;;;;;0.60;0.60;;;;;;;0.17;63.88;98815.84;29371;294;64013;-66
2023/02/11 00:07:47;;;;;;;0.60;0.60;;;;;;;0.18;63.79;98816.66;29373;202;63017;-61
2023/02/11 00:08:18;;;;;;;0.60;0.60;;;;;;;0.16;63.96;98811.50;29373;231;63012;-61
2023/02/11 00:08:50;;;;;;;0.60;0.60;;;;;;;0.14;63.82;98815.38;29373;202;63004;-60
2023/02/11 00:09:21;;;;;;;0.60;0.60;;;;;;;0.13;64.09;98808.38;29373;218;63008;-61
2023/02/11 00:09:52;;;;;;;0.60;0.60;;;;;;;0.12;63.97;98806.69;29373;224;63005;-61
2023/02/11 00:10:23;;;;;;;0.60;0.60;;;;;;;0.09;64.01;98802.56;29373;205;63009;-59
2023/02/11 00:10:56;;;;;;;0.60;0.60;;;;;;;0.09;64.00;98817.72;29373;256;63005;-67
2023/02/11 00:11:29;;;;;;;0.60;0.60;;;;;;;0.07;64.13;98803.72;29373;222;63009;-61
2023/02/11 00:12:02;;;;;;;0.60;0.60;;;;;;;0.05;64.05;98813.75;29373;243;63005;-61
2023/02/11 00:12:35;;;;;;;0.60;0.60;;;;;;;0.04;64.15;98809.44;29371;200;64013;-67
2023/02/11 00:13:06;;;;;;;0.60;0.60;;;;;;;-0.02;64.28;98816.34;29373;209;63009;-61
2023/02/11 00:13:37;;;;;;;0.60;0.60;;;;;;;-0.06;64.49;98810.53;29373;197;63009;-61
2023/02/11 00:14:10;;;;;;;0.60;0.60;;;;;;;-0.11;64.58;98804.87;29373;197;63004;-60
2023/02/11 00:14:42;;;;;;;0.60;0.60;;;;;;;-0.08;64.66;98809.03;29373;222;63009;-63
2023/02/11 00:15:13;;;;;;;0.60;0.60;;;;;;;-0.10;64.75;98814.56;29373;245;63004;-65
2023/02/11 00:15:45;;;;;;;0.60;0.60;;;;;;;-0.11;64.90;98810.22;29373;212;63009;-64
2023/02/11 00:16:20;;;;;;;0.60;0.60;;;;;;;-0.13;65.02;98809.56;29373;218;63004;-61
2023/02/11 00:16:54;;;;;;;0.68;0.68;;;;;;;-0.15;65.02;98819.59;29373;225;63008;-61
2023/02/11 00:17:26;;;;;;;0.60;0.60;;;;;;;-0.18;65.35;98814.59;29373;293;63005;-60
2023/02/11 00:17:57;;;;;;;3.53;3.42;;;;;;;-0.19;65.17;98815.62;29371;197;64014;-61
2023/02/11 00:18:29;;;;;;;0.60;0.60;;;;;;;-0.21;65.39;98820.28;29373;204;63017;-61
2023/02/11 00:19:02;;;;;;;1.55;1.55;;;;;;;-0.23;66.03;98819.63;29373;204;63009;-61
2023/02/11 00:19:33;;;;;;;0.60;0.60;;;;;;;-0.25;65.77;98821.66;29373;197;63005;-61
2023/02/11 00:20:06;;;;;;;0.60;0.60;;;;;;;-0.28;65.94;98816.66;29373;202;63009;-61
2023/02/11 00:20:41;;;;;;;0.60;0.60;;;;;;;-0.26;65.97;98820.00;29373;272;63005;-61
2023/02/11 00:21:15;;;;;;;0.60;0.60;;;;;;;-0.26;66.08;98819.16;29373;285;63009;-66
2023/02/11 00:21:48;;;;;;;0.70;0.70;;;;;;;-0.26;65.96;98819.16;29373;217;63004;-61
2023/02/11 00:22:21;;;;;;;0.60;0.60;;;;;;;-0.28;66.32;98827.34;29373;218;63009;-61
2023/02/11 00:22:52;;;;;;;0.60;0.60;;;;;;;-0.28;66.08;98824.66;29373;241;63004;-62
2023/02/11 00:23:23;;;;;;;0.60;0.60;;;;;;;-0.27;66.41;98818.31;29371;241;64013;-60
2023/02/11 00:23:58;;;;;;;0.60;0.60;;;;;;;-0.27;66.12;98820.16;29373;215;63004;-62
2023/02/11 00:24:29;;;;;;;0.70;0.70;;;;;;;-0.27;66.20;98818.31;29373;218;63008;-60
2023/02/11 00:25:02;;;;;;;0.60;0.60;;;;;;;-0.28;66.23;98821.16;29373;243;63005;-60
2023/02/11 00:25:38;;;;;;;0.70;0.70;;;;;;;-0.30;66.43;98824.00;29373;197;63009;-61
2023/02/11 00:26:18;;;;;;;0.70;0.70;;;;;;;-0.33;66.42;98824.38;29373;291;63005;-60
2023/02/11 00:26:52;;;;;;;0.65;0.65;;;;;;;-0.35;66.65;98823.75;29373;250;63009;-61
2023/02/11 00:27:23;;;;;;;0.60;0.60;;;;;;;-0.35;66.13;98821.06;29373;299;63005;-61
2023/02/11 00:27:54;;;;;;;0.62;0.62;;;;;;;-0.35;66.27;98821.06;29373;251;63019;-60
2023/02/11 00:28:26;;;;;;;0.60;0.60;;;;;;;-0.37;66.40;98815.91;29371;210;64009;-65
2023/02/11 00:29:00;;;;;;;0.60;0.60;;;;;;;-0.38;66.30;98816.09;29373;214;63009;-61
2023/02/11 00:29:32;;;;;;;0.60;0.60;;;;;;;-0.39;66.32;98817.94;29373;222;63004;-61
2023/02/11 00:30:04;;;;;;;0.60;0.60;;;;;;;-0.40;66.23;98823.44;29373;218;63009;-60
2023/02/11 00:30:35;;;;;;;0.60;0.60;;;;;;;-0.41;66.31;98821.78;29373;229;63004;-61
2023/02/11 00:31:07;;;;;;;0.60;0.60;;;;;;;-0.43;66.52;98823.78;29373;216;63009;-60
2023/02/11 00:31:38;;;;;;;4.55;4.35;;;;;;;-0.44;66.36;98820.28;29373;204;63004;-61
2023/02/11 00:32:10;;;;;;;0.60;0.60;;;;;;;-0.43;66.58;98821.13;29373;253;63008;-61
2023/02/11 00:32:41;;;;;;;0.60;0.60;;;;;;;-0.43;66.56;98821.13;29371;208;64009;-61
2023/02/11 00:33:12;;;;;;;0.60;0.60;;;;;;;-0.45;66.99;98825.78;29373;214;63023;-61
2023/02/11 00:33:44;;;;;;;0.70;0.70;;;;;;;-0.48;66.56;98821.63;29373;220;63005;-61
2023/02/11 00:34:16;;;;;;;0.90;0.90;;;;;;;-0.49;66.59;98824.47;29373;262;63009;-65
2023/02/11 00:34:54;;;;;;;0.60;0.60;;;;;;;-0.50;66.93;98820.16;29373;221;63005;-67
2023/02/11 00:35:26;;;;;;;0.60;0.60;;;;;;;-0.51;67.19;98818.50;29373;213;63009;-60
2023/02/11 00:36:08;;;;;;;0.60;0.60;;;;;;;-0.51;67.29;98821.16;29371;219;64009;-60
2023/02/11 00:36:40;;;;;;;0.70;0.70;;;;;;;-0.51;67.12;98815.81;29371;222;64013;-60
2023/02/11 00:37:12;;;;;;;0.70;0.70;;;;;;;-0.50;66.95;98820.16;29373;199;63018;-61
2023/02/11 00:37:44;;;;;;;0.60;0.60;;;;;;;-0.51;67.20;98813.16;29373;202;63025;-61
2023/02/11 00:38:15;;;;;;;0.60;0.60;;;;;;;-0.50;67.03;98809.47;29373;222;63004;-62
2023/02/11 00:38:48;;;;;;;0.70;0.70;;;;;;;-0.51;67.08;98808.66;29373;229;63008;-60
2023/02/11 00:39:20;;;;;;;0.60;0.60;;;;;;;-0.51;66.93;98806.00;29373;243;63005;-63
2023/02/11 00:39:51;;;;;;;0.60;0.60;;;;;;;-0.47;66.79;98801.12;29373;205;63009;-61
2023/02/11 00:40:22;;;;;;;0.60;0.60;;;;;;;-0.46;66.73;98802.78;29373;199;63005;-62
2023/02/11 00:40:54;;;;;;;0.60;0.60;;;;;;;-0.43;66.86;98808.62;29373;223;63009;-62
2023/02/11 00:41:25;;;;;;;0.60;0.60;;;;;;;-0.41;66.75;98801.28;29373;211;63005;-60
2023/02/11 00:41:57;;;;;;;0.65;0.65;;;;;;;-0.39;66.40;98801.09;29371;197;64013;-60
2023/02/11 00:42:29;;;;;;;0.60;0.60;;;;;;;-0.38;66.29;98800.91;29373;222;63005;-66
2023/02/11 00:43:00;;;;;;;0.70;0.70;;;;;;;-0.36;66.48;98798.06;29373;209;63009;-67
2023/02/11 00:43:31;;;;;;;0.60;0.60;;;;;;;-0.35;66.38;98800.53;29373;287;63004;-60
2023/02/11 00:44:03;;;;;;;0.60;0.60;;;;;;;-0.34;66.39;98794.19;29373;216;63009;-62
2023/02/11 00:44:34;;;;;;;0.60;0.60;;;;;;;-0.33;66.27;98792.34;29373;223;63016;-61
2023/02/11 00:45:08;;;;;;;0.60;0.60;;;;;;;-0.34;66.62;98799.53;29373;257;63015;-60
2023/02/11 00:45:40;;;;;;;0.60;0.60;;;;;;;-0.34;66.02;98796.87;29373;239;63012;-59
2023/02/11 00:46:12;;;;;;;0.60;0.60;;;;;;;-0.32;66.27;98795.84;29373;226;63017;-62
2023/02/11 00:46:43;;;;;;;0.60;0.60;;;;;;;-0.32;66.27;98799.34;29373;202;63005;-61
2023/02/11 00:47:15;;;;;;;0.60;0.60;;;;;;;-0.33;65.90;98803.03;29371;227;64014;-62
2023/02/11 00:47:47;;;;;;;0.60;0.60;;;;;;;-0.34;66.12;98798.69;29371;202;64009;-66
2023/02/11 00:48:19;;;;;;;0.60;0.60;;;;;;;-0.35;66.38;98792.53;29373;219;63009;-60
2023/02/11 00:48:53;;;;;;;0.60;0.60;;;;;;;-0.34;66.01;98786.19;29373;218;63005;-61
2023/02/11 00:49:25;;;;;;;0.60;0.60;;;;;;;-0.34;66.48;98793.38;29373;296;63023;-61
2023/02/11 00:49:56;;;;;;;0.60;0.60;;;;;;;-0.34;66.06;98790.69;29373;249;63005;-62
2023/02/11 00:50:27;;;;;;;0.70;0.70;;;;;;;-0.36;66.80;98798.06;29373;218;63009;-61
2023/02/11 00:51:02;;;;;;;0.70;0.70;;;;;;;-0.37;66.70;98796.41;29373;246;63004;-61
2023/02/11 00:51:34;;;;;;;0.70;0.70;;;;;;;-0.39;67.04;98798.44;29373;208;63019;-61
2023/02/11 00:52:05;;;;;;;0.70;0.70;;;;;;;-0.42;66.69;98793.44;29373;214;63004;-62
2023/02/11 00:52:37;;;;;;;0.70;0.70;;;;;;;-0.44;66.70;98795.44;29373;204;63013;-62
2023/02/11 00:53:08;;;;;;;0.60;0.60;;;;;;;-0.43;66.92;98791.78;29372;196;64009;-61
2023/02/11 00:53:41;;;;;;;0.70;0.70;;;;;;;-0.43;66.68;98800.59;29371;226;64013;-61
2023/02/11 00:54:13;;;;;;;0.70;0.70;;;;;;;-0.44;66.61;98798.13;29373;197;63005;-62
2023/02/11 00:54:44;;;;;;;0.65;0.65;;;;;;;-0.45;66.92;98804.47;29371;264;64014;-61
2023/02/11 00:55:16;;;;;;;0.70;0.70;;;;;;;-0.46;67.13;98802.78;29373;204;63009;-61
2023/02/11 00:55:48;;;;;;;0.60;0.60;;;;;;;-0.47;66.92;98801.97;29373;205;63009;-60
2023/02/11 00:56:20;;;;;;;0.60;0.60;;;;;;;-0.48;67.08;98808.31;29373;216;63008;-60
2023/02/11 00:56:51;;;;;;;0.60;0.60;;;;;;;-0.47;67.19;98801.12;29373;274;63009;-61
2023/02/11 00:57:24;;;;;;;16.00;14.57;;;;;;;-0.49;66.84;98797.81;29363;246;65005;-61
2023/02/11 00:57:55;;;;;;;0.70;0.70;;;;;;;-0.51;67.00;98806.00;29373;216;63013;-61
2023/02/11 00:58:27;;;;;;;0.70;0.70;;;;;;;-0.50;67.02;98804.16;29373;227;63004;-61
2023/02/11 00:58:58;;;;;;;0.60;0.60;;;;;;;-0.50;66.89;98806.81;29373;214;63009;-60
2023/02/11 00:59:30;;;;;;;0.70;0.70;;;;;;;-0.51;67.12;98806.00;29371;197;64009;-60
2023/02/11 01:00:02;;;;;;;0.60;0.60;;;;;;;-0.52;67.19;98798.16;29373;216;63009;-61
2023/02/11 01:00:33;;;;;;;0.60;0.60;;;;;;;-0.53;67.11;98802.66;29373;236;63004;-61
2023/02/11 01:01:05;;;;;;;0.60;0.60;;;;;;;-0.54;67.52;98802.84;29372;217;64008;-67
2023/02/11 01:01:39;;;;;;;0.70;0.70;;;;;;;-0.56;67.38;98807.50;29373;202;63004;-60
2023/02/11 01:02:10;;;;;;;0.60;0.60;;;;;;;-0.58;67.57;98812.19;29373;235;63009;-61
2023/02/11 01:02:41;;;;;;;0.60;0.60;;;;;;;-0.58;67.29;98814.84;29373;248;63005;-61
2023/02/11 01:03:16;;;;;;;0.70;0.70;;;;;;;-0.62;68.08;98816.22;29373;204;63026;-61
2023/02/11 01:03:47;;;;;;;0.60;0.60;;;;;;;-0.68;67.83;98810.56;29373;330;63000;-61
2023/02/11 01:04:18;;;;;;;0.70;0.70;;;;;;;-0.69;68.09;98811.56;29373;199;63023;-61
2023/02/11 01:04:50;;;;;;;0.60;0.60;;;;;;;-0.72;67.95;98809.28;29371;204;64009;-60
2023/02/11 01:05:21;;;;;;;0.70;0.70;;;;;;;-0.75;68.48;98809.63;29373;210;63009;-66
2023/02/11 01:05:53;;;;;;;0.60;0.60;;;;;;;-0.79;68.96;98813.63;29371;227;64009;-61
2023/02/11 01:06:24;;;;;;;0.70;0.70;;;;;;;-0.82;68.93;98810.50;29373;242;63009;-60
2023/02/11 01:06:55;;;;;;;0.65;0.65;;;;;;;-0.86;68.74;98810.00;29373;211;63004;-60
2023/02/11 01:07:27;;;;;;;0.70;0.70;;;;;;;-0.86;68.91;98811.84;29373;217;63009;-61
2023/02/11 01:07:58;;;;;;;0.70;0.70;;;;;;;-0.87;68.64;98811.00;29373;256;63004;-66
2023/02/11 01:08:30;;;;;;;0.60;0.60;;;;;;;-0.90;69.12;98806.00;29373;216;63008;-61
2023/02/11 01:09:01;;;;;;;14.23;13.62;;;;;;;-0.93;68.80;98805.53;29363;226;65004;-61
2023/02/11 01:09:32;;;;;;;1.00;1.00;;;;;;;-0.93;69.10;98805.53;29373;222;63009;-60
2023/02/11 01:10:04;;;;;;;0.60;0.60;;;;;;;-0.94;69.11;98803.87;29371;245;64009;-62
2023/02/11 01:10:35;;;;;;;0.70;0.70;;;;;;;-0.95;69.18;98808.38;29373;242;63009;-61
2023/02/11 01:11:16;;;;;;;0.70;0.70;;;;;;;-0.95;68.81;98807.53;29373;197;63005;-61
2023/02/11 01:11:48;;;;;;;0.70;0.70;;;;;;;-0.96;69.15;98812.03;29395;245;63009;-60
2023/02/11 01:12:19;;;;;;;0.60;0.60;;;;;;;-0.95;68.91;98803.03;29395;200;63008;-68
2023/02/11 01:12:52;;;;;;;0.60;0.60;;;;;;;-0.94;69.52;98810.03;29373;247;63009;-60
2023/02/11 01:13:25;;;;;;;0.60;0.60;;;;;;;-0.95;69.18;98803.03;29373;227;63004;-61
2023/02/11 01:13:56;;;;;;;0.60;0.60;;;;;;;-0.95;69.46;98802.22;29373;292;63009;-61
2023/02/11 01:14:29;;;;;;;0.60;0.60;;;;;;;-0.95;69.10;98808.38;29373;239;63004;-61
2023/02/11 01:15:01;;;;;;;0.60;0.60;;;;;;;-0.94;69.36;98809.19;29373;211;63009;-62
2023/02/11 01:15:33;;;;;;;0.82;0.82;;;;;;;-0.93;69.40;98808.19;29371;204;64008;-62
2023/02/11 01:16:09;;;;;;;1.12;1.12;;;;;;;-0.91;69.20;98807.03;29373;248;63008;-67
2023/02/11 01:16:40;;;;;;;0.60;0.60;;;;;;;-0.92;69.58;98808.03;29373;226;63004;-61
2023/02/11 01:17:11;;;;;;;0.70;0.70;;;;;;;-0.92;69.73;98808.03;29373;242;63009;-62
2023/02/11 01:17:43;;;;;;;0.70;0.70;;;;;;;-0.91;69.30;98801.69;29373;235;63005;-62
2023/02/11 01:18:15;;;;;;;0.60;0.60;;;;;;;-0.92;69.39;98808.03;29373;223;63009;-61
2023/02/11 01:18:46;;;;;;;0.60;0.60;;;;;;;-0.92;68.84;98800.03;29373;233;63005;-62
2023/02/11 01:19:17;;;;;;;0.70;0.70;;;;;;;-0.90;69.17;98798.03;29373;203;63009;-61
2023/02/11 01:19:48;;;;;;;0.60;0.60;;;;;;;-0.91;68.85;98793.69;29373;203;63005;-61
2023/02/11 01:20:23;;;;;;;0.65;0.65;;;;;;;-0.93;69.29;98798.38;29373;288;63009;-67
2023/02/11 01:20:55;;;;;;;0.70;0.70;;;;;;;-0.93;69.32;98795.69;29371;263;64009;-60
2023/02/11 01:21:28;;;;;;;0.60;0.60;;;;;;;-0.92;69.25;98796.53;29373;210;63009;-61
2023/02/11 01:21:59;;;;;;;0.70;0.70;;;;;;;-0.91;68.81;98788.38;29373;208;63004;-61
2023/02/11 01:22:31;;;;;;;0.60;0.60;;;;;;;-0.90;68.83;98790.03;29373;208;63015;-60
2023/02/11 01:23:02;;;;;;;0.60;0.60;;;;;;;-0.90;69.11;98784.69;29373;209;63004;-60
2023/02/11 01:23:33;;;;;;;0.70;0.70;;;;;;;-0.90;68.89;98776.69;29373;223;63009;-61
2023/02/11 01:24:05;;;;;;;0.60;0.60;;;;;;;-0.87;68.71;98778.19;29373;213;63005;-61
2023/02/11 01:24:36;;;;;;;0.77;0.77;;;;;;;-0.88;68.89;98777.38;29373;199;63009;-61
2023/02/11 01:25:09;;;;;;;0.70;0.70;;;;;;;-0.87;68.67;98768.38;29373;236;63005;-60
2023/02/11 01:25:40;;;;;;;0.95;0.95;;;;;;;-0.85;69.00;98773.53;29373;202;63009;-62
2023/02/11 01:26:12;;;;;;;1.08;1.08;;;;;;;-0.84;68.82;98777.84;29371;202;64009;-60
2023/02/11 01:26:43;;;;;;;0.60;0.60;;;;;;;-0.82;68.68;98779.34;29373;232;63022;-60
2023/02/11 01:27:14;;;;;;;0.65;0.65;;;;;;;-0.81;68.59;98770.34;29373;284;63005;-61
2023/02/11 01:27:46;;;;;;;0.60;0.60;;;;;;;-0.79;68.15;98773.66;29371;282;64013;-61
2023/02/11 01:28:19;;;;;;;1.05;1.05;;;;;;;-0.78;68.47;98762.00;29371;276;64009;-62
2023/02/11 01:28:51;;;;;;;0.60;0.60;;;;;;;-0.74;68.36;98763.31;29373;262;63009;-63
2023/02/11 01:29:22;;;;;;;0.70;0.70;;;;;;;-0.71;67.97;98765.63;29373;210;63010;-60
2023/02/11 01:29:53;;;;;;;0.70;0.70;;;;;;;-0.71;68.18;98768.28;29373;202;63004;-61
2023/02/11 01:30:25;;;;;;;0.60;0.60;;;;;;;-0.69;67.84;98760.09;29373;252;63004;-62
2023/02/11 01:30:56;;;;;;;0.70;0.70;;;;;;;-0.69;68.17;98760.91;29373;209;63008;-61
2023/02/11 01:31:29;;;;;;;0.60;0.60;;;;;;;-0.69;67.79;98766.25;29373;271;63005;-65
2023/02/11 01:32:00;;;;;;;0.70;0.70;;;;;;;-0.68;67.82;98759.91;29373;222;63009;-61
2023/02/11 01:32:32;;;;;;;0.60;0.60;;;;;;;-0.65;67.44;98760.56;29373;202;63005;-61
2023/02/11 01:33:06;;;;;;;0.70;0.70;;;;;;;-0.64;67.78;98763.06;29373;218;63009;-62
2023/02/11 01:33:38;;;;;;;0.70;0.70;;;;;;;-0.62;67.77;98760.22;29371;237;64009;-61
2023/02/11 01:34:10;;;;;;;0.70;0.70;;;;;;;-0.62;67.80;98760.22;29371;208;64013;-62
2023/02/11 01:34:41;;;;;;;0.70;0.70;;;;;;;-0.60;67.33;98758.22;29373;202;63005;-60
2023/02/11 01:35:12;;;;;;;0.70;0.70;;;;;;;-0.60;67.51;98755.53;29373;203;63008;-62
2023/02/11 01:35:44;;;;;;;0.65;0.65;;;;;;;-0.60;67.45;98752.88;29372;209;64004;-67
2023/02/11 01:36:15;;;;;;;0.70;0.70;;;;;;;-0.58;67.14;98758.87;29373;212;63009;-62
2023/02/11 01:36:46;;;;;;;0.70;0.70;;;;;;;-0.59;67.44;98754.53;29373;211;63009;-66
2023/02/11 01:37:18;;;;;;;0.60;0.60;;;;;;;-0.58;67.45;98757.03;29373;196;63018;-62
2023/02/11 01:37:49;;;;;;;0.60;0.60;;;;;;;-0.58;67.31;98756.19;29373;222;63004;-61
2023/02/11 01:38:24;;;;;;;0.60;0.60;;;;;;;-0.57;67.11;98749.84;29373;260;63008;-64
2023/02/11 01:38:55;;;;;;;0.77;0.77;;;;;;;-0.57;66.86;98752.53;29373;203;63015;-61
2023/02/11 01:39:26;;;;;;;3.33;3.22;;;;;;;-0.56;67.12;98755.00;29371;221;64014;-62
2023/02/11 01:39:58;;;;;;;0.60;0.60;;;;;;;-0.54;66.89;98754.84;29373;234;63019;-67
2023/02/11 01:40:29;;;;;;;0.70;0.70;;;;;;;-0.53;67.25;98753.84;29373;208;63009;-61
2023/02/11 01:41:05;;;;;;;0.70;0.70;;;;;;;-0.54;66.82;98747.69;29373;231;63005;-61
2023/02/11 01:41:37;;;;;;;0.60;0.60;;;;;;;-0.54;66.82;98752.19;29371;238;64013;-61
2023/02/11 01:42:15;;;;;;;0.60;0.60;;;;;;;-0.54;66.76;98747.69;29373;221;63005;-61
2023/02/11 01:42:46;;;;;;;0.70;0.70;;;;;;;-0.55;67.11;98753.19;29373;223;63016;-61
2023/02/11 01:43:18;;;;;;;0.60;0.60;;;;;;;-0.54;66.77;98754.84;29373;202;63004;-61
2023/02/11 01:43:49;;;;;;;0.60;0.60;;;;;;;-0.53;67.04;98753.84;29373;215;63009;-61
2023/02/11 01:44:42;;;;;;;0.60;0.60;;;;;;;-0.52;66.71;98760.84;29373;225;63004;-60
2023/02/11 01:45:52;;;;;;;0.60;0.60;;;;;;;-0.52;66.78;98751.00;29373;221;63009;-62
2023/02/11 01:46:36;;;;;;;0.70;0.70;;;;;;;-0.51;66.71;98758.00;29373;252;63023;-61
2023/02/11 01:47:08;;;;;;;0.70;0.70;;;;;;;-0.51;66.61;98757.16;29371;227;64009;-62
2023/02/11 01:47:39;;;;;;;0.70;0.70;;;;;;;-0.51;66.54;98752.66;29373;213;63009;-61
2023/02/11 01:48:13;;;;;;;0.70;0.70;;;;;;;-0.50;66.92;98753.47;29373;230;63005;-62
2023/02/11 01:48:49;;;;;;;0.60;0.60;;;;;;;-0.51;66.62;98758.00;29373;231;63009;-61
2023/02/11 01:49:34;;;;;;;0.60;0.60;;;;;;;-0.51;66.67;98752.66;29373;202;63008;-62
2023/02/11 01:50:06;;;;;;;0.70;0.70;;;;;;;-0.52;66.51;98755.50;29373;242;63026;-61
2023/02/11 01:50:40;;;;;;;0.70;0.70;;;;;;;-0.53;66.84;98754.66;29373;206;63004;-62
2023/02/11 01:51:21;;;;;;;0.65;0.65;;;;;;;-0.54;66.61;98753.00;29373;197;63009;-62
2023/02/11 01:52:18;;;;;;;0.70;0.70;;;;;;;-0.54;66.74;98752.19;29394;214;64004;-61
2023/02/11 01:52:50;;;;;;;0.60;0.60;;;;;;;-0.53;66.79;98748.50;29394;235;64013;-62
2023/02/11 01:57:47;;;;;;;0.60;0.60;;;;;;;-0.55;66.96;98751.34;29373;196;63009;-62
2023/02/11 01:58:19;;;;;;;0.70;0.70;;;;;;;-0.54;66.74;98742.34;29371;234;64009;-61
2023/02/11 01:58:54;;;;;;;0.60;0.60;;;;;;;-0.53;66.69;98748.50;29373;297;63009;-61
2023/02/11 02:00:01;;;;;;;0.70;0.70;;;;;;;-0.53;66.93;98754.66;29373;244;63004;-61
2023/02/11 02:00:36;;;;;;;0.70;0.70;;;;;;;-0.51;66.81;98757.16;29371;212;64013;-61
2023/02/11 02:01:11;;;;;;;0.60;0.60;;;;;;;-0.51;66.86;98743.81;29373;202;63004;-62
2023/02/11 02:01:49;;;;;;;0.70;0.70;;;;;;;-0.49;66.74;98741.81;29373;197;63009;-62
2023/02/11 02:02:29;;;;;;;0.68;0.68;;;;;;;-0.50;66.43;98748.16;29371;232;64009;-62
2023/02/11 02:03:21;;;;;;;0.60;0.60;;;;;;;-0.50;66.40;98742.81;29373;242;63022;-62
2023/02/11 02:03:56;;;;;;;0.70;0.70;;;;;;;-0.52;66.68;98742.16;29373;202;63005;-62
2023/02/11 02:04:32;;;;;;;0.70;0.70;;;;;;;-0.53;66.70;98748.50;29371;205;64013;-62
2023/02/11 02:05:29;;;;;;;0.60;0.60;;;;;;;-0.54;66.62;98741.50;29373;231;63011;-61
2023/02/11 02:06:16;;;;;;;0.70;0.70;;;;;;;-0.56;66.64;98738.19;29373;252;63009;-62
2023/02/11 02:06:58;;;;;;;0.70;0.70;;;;;;;-0.56;66.78;98746.19;29372;240;63004;-61
2023/02/11 02:07:44;;;;;;;0.70;0.70;;;;;;;-0.56;66.48;98749.69;29373;244;63009;-61
2023/02/11 02:08:42;;;;;;;0.70;0.70;;;;;;;-0.58;66.90;98750.87;29373;228;63004;-61
2023/02/11 02:09:25;;;;;;;0.60;0.60;;;;;;;-0.62;66.98;98750.37;29373;257;63009;-65
2023/02/11 02:10:06;;;;;;;0.70;0.70;;;;;;;-0.65;67.68;98749.91;29371;234;64009;-62
2023/02/11 02:10:43;;;;;;;0.60;0.60;;;;;;;-0.71;67.80;98746.13;29371;218;64013;-62
2023/02/11 02:11:14;;;;;;;0.60;0.60;;;;;;;-0.76;67.75;98756.50;29373;228;63005;-61
2023/02/11 02:11:45;;;;;;;0.60;0.60;;;;;;;-0.83;67.92;98748.34;29371;221;64013;-61
2023/02/11 02:12:16;;;;;;;0.90;0.90;;;;;;;-0.89;68.19;98746.38;29373;244;63005;-60
2023/02/11 02:12:48;;;;;;;7.97;2.55;;;;;;;-0.87;68.09;98747.03;29373;230;63009;-62
2023/02/11 02:13:20;;;;;;;0.60;0.60;;;;;;;-0.84;67.88;98735.22;29373;274;63004;-61
2023/02/11 02:13:51;;;;;;;0.70;0.70;;;;;;;-0.80;67.27;98740.00;29372;196;64013;-61
2023/02/11 02:14:22;;;;;;;0.60;0.60;;;;;;;-0.80;68.12;98741.84;29373;229;63004;-62
2023/02/11 02:15:18;;;;;;;0.70;0.70;;;;;;;-0.81;67.58;98740.19;29373;218;63009;-61
2023/02/11 02:15:57;;;;;;;0.68;0.68;;;;;;;-0.82;67.73;98739.34;29373;232;63004;-63
2023/02/11 02:16:34;;;;;;;0.60;0.60;;;;;;;-0.83;67.42;98736.88;29373;217;63013;-62
2023/02/11 02:17:06;;;;;;;1.52;1.45;;;;;;;-0.84;67.74;98733.38;29373;240;63005;-61
2023/02/11 02:17:47;;;;;;;0.60;0.60;;;;;;;-0.84;67.60;98736.03;29373;234;63009;-63
2023/02/11 02:19:02;;;;;;;0.60;0.60;;;;;;;-0.84;67.82;98740.53;29373;238;63005;-62
2023/02/11 02:20:15;;;;;;;0.68;0.68;;;;;;;-0.88;68.15;98742.72;29371;229;64013;-61
2023/02/11 02:21:11;;;;;;;;;;;;;;;-0.92;68.79;98749.41;29974;983;28000;-61
2023/02/11 02:22:26;;;;;;;0.70;0.70;;;;;;;-0.97;68.91;98746.41;29400;231;63004;-68
2023/02/11 02:23:27;;;;;;;0.75;0.75;;;;;;;-0.96;68.50;98745.41;29373;276;63004;-62
2023/02/11 02:24:32;;;;;;;0.70;0.70;;;;;;;-0.93;68.27;98747.75;29373;256;63013;-62
2023/02/11 02:25:47;;;;;;;0.70;0.70;;;;;;;-0.92;68.18;98741.41;29372;210;64009;-61
2023/02/11 02:26:53;;;;;;;0.70;0.70;;;;;;;-0.93;68.12;98742.41;29373;239;63009;-62
2023/02/11 02:28:18;;;;;;;0.70;0.70;;;;;;;-0.93;68.71;98753.06;29373;241;63009;-62
2023/02/11 02:29:39;;;;;;;0.70;0.70;;;;;;;-0.95;68.97;98739.09;29372;213;64004;-61
2023/02/11 02:30:41;;;;;;;0.62;0.62;;;;;;;-0.93;68.51;98742.41;29371;209;64013;-62
2023/02/11 02:31:47;;;;;;;0.70;0.70;;;;;;;-0.92;68.48;98736.06;29395;203;63019;-61
2023/02/11 02:33:04;;;;;;;0.70;0.70;;;;;;;-0.88;68.32;98733.88;29395;206;63005;-61
2023/02/11 02:34:03;;;;;;;0.60;0.60;;;;;;;-0.88;68.55;98729.41;29373;234;63009;-61
2023/02/11 02:35:15;;;;;;;0.70;0.70;;;;;;;-0.85;68.47;98725.56;29371;232;64013;-61
2023/02/11 02:36:06;;;;;;;0.70;0.70;;;;;;;-0.83;68.18;98727.03;29371;220;64009;-61
2023/02/11 02:36:53;;;;;;;0.70;0.70;;;;;;;-0.82;68.00;98717.22;29417;216;63009;-63
2023/02/11 02:37:33;;;;;;;0.70;0.70;;;;;;;-0.83;67.96;98718.22;29373;214;63004;-66
2023/02/11 02:38:43;;;;;;;0.70;0.70;;;;;;;-0.84;68.26;98720.03;29395;212;63017;-61
2023/02/11 02:39:22;;;;;;;0.60;0.60;;;;;;;-0.84;68.10;98725.38;29395;224;63005;-61
2023/02/11 02:39:56;;;;;;;0.60;0.60;;;;;;;-0.82;68.12;98717.22;29373;207;63009;-61
2023/02/11 02:40:56;;;;;;;0.70;0.70;;;;;;;-0.83;67.87;98723.53;29373;219;63005;-61
2023/02/11 02:41:33;;;;;;;0.70;0.70;;;;;;;-0.86;68.45;98716.72;29371;254;64013;-61
2023/02/11 02:42:04;;;;;;;0.70;0.70;;;;;;;-0.85;68.11;98721.06;29373;227;63005;-62
2023/02/11 02:42:38;;;;;;;0.60;0.60;;;;;;;-0.83;68.14;98716.38;29373;207;63009;-62
2023/02/11 02:43:11;;;;;;;0.70;0.70;;;;;;;-0.77;67.78;98718.34;29373;324;63004;-62
2023/02/11 02:43:46;;;;;;;0.70;0.70;;;;;;;-0.74;67.77;98720.66;29373;242;63009;-62
2023/02/11 02:44:19;;;;;;;0.70;0.70;;;;;;;-0.73;67.53;98717.00;29373;210;63004;-62
2023/02/11 02:44:52;;;;;;;0.70;0.70;;;;;;;-0.73;67.60;98722.31;29373;284;63004;-66
2023/02/11 02:45:23;;;;;;;0.70;0.70;;;;;;;-0.77;68.53;98715.69;29373;202;63009;-62
2023/02/11 02:45:55;;;;;;;0.60;0.60;;;;;;;-0.81;68.26;98727.69;29371;264;64014;-62
2023/02/11 02:46:32;;;;;;;0.70;0.70;;;;;;;-0.84;68.27;98720.03;29373;209;63005;-61
2023/02/11 02:47:04;;;;;;;0.68;0.68;;;;;;;-0.86;68.38;98724.72;29373;212;63009;-60
2023/02/11 02:47:35;;;;;;;0.70;0.70;;;;;;;-0.88;68.45;98726.72;29373;222;63005;-61
2023/02/11 02:48:21;;;;;;;0.70;0.70;;;;;;;-0.88;68.89;98724.06;29373;273;63009;-62
2023/02/11 02:48:54;;;;;;;0.70;0.70;;;;;;;-0.91;69.33;98727.06;29373;236;63005;-61
2023/02/11 02:49:25;;;;;;;0.70;0.70;;;;;;;-0.92;69.42;98728.06;29373;249;63009;-61
2023/02/11 02:49:57;;;;;;;0.70;0.70;;;;;;;-0.94;69.24;98724.75;29373;228;63008;-60
2023/02/11 02:50:35;;;;;;;0.70;0.70;;;;;;;-0.93;69.41;98726.41;29373;220;63019;-61
2023/02/11 02:51:46;;;;;;;0.60;0.60;;;;;;;-0.92;69.39;98721.91;29371;203;64009;-62
2023/02/11 02:52:44;;;;;;;0.70;0.70;;;;;;;-0.93;69.33;98726.41;29373;323;63009;-62
2023/02/11 02:53:49;;;;;;;0.70;0.70;;;;;;;-0.94;69.33;98722.09;29374;209;63005;-60
2023/02/11 02:55:00;;;;;;;0.70;0.70;;;;;;;-0.93;69.44;98720.25;29374;208;63009;-62
2023/02/11 02:56:06;;;;;;;0.60;0.60;;;;;;;-0.91;69.06;98718.25;29374;213;63012;-61
2023/02/11 02:57:06;;;;;;;0.68;0.68;;;;;;;-0.92;68.92;98714.75;29372;238;64013;-61
2023/02/11 02:58:35;;;;;;;0.60;0.60;;;;;;;-0.87;68.75;98709.72;29372;216;63999;-60
2023/02/11 02:59:40;;;;;;;0.70;0.70;;;;;;;-0.85;68.80;98709.56;29374;232;63013;-61
2023/02/11 03:00:52;;;;;;;0.70;0.70;;;;;;;-0.83;68.62;98705.72;29374;266;63004;-61